Time;durP1;ratioP1;P1;durP2;ratioP2;P2;SDS_P1;SDS_P2;PMS_P1;PMS_P2;Temp;Humidity;BMP_temperature;BMP_pressure;BME280_temperature;BME280_humidity;BME280_pressure;Samples;Min_cycle;Max_cycle;Signal;HPM_P1;HPM_P2
2023/04/26 00:01:56;;;;;;;0.10;0.10;;;8.60;99.90;;;;;;5093707;28;20095;-74
2023/04/26 00:04:22;;;;;;;0.00;0.00;;;8.60;99.90;;;;;;5086695;28;20096;-71
2023/04/26 00:06:48;;;;;;;0.00;0.00;;;8.60;99.90;;;;;;5091080;28;20049;-74
2023/04/26 00:09:14;;;;;;;0.10;0.10;;;8.70;99.90;;;;;;5091129;28;20076;-73
2023/04/26 00:11:40;;;;;;;0.10;0.10;;;8.70;99.90;;;;;;5092050;28;20545;-73
2023/04/26 00:14:06;;;;;;;0.00;0.00;;;8.70;99.90;;;;;;5091099;28;20078;-73
2023/04/26 00:16:32;;;;;;;0.00;0.00;;;8.70;99.90;;;;;;5092956;28;20681;-73
2023/04/26 00:18:58;;;;;;;0.00;0.00;;;8.70;99.90;;;;;;5096895;28;20101;-74
2023/04/26 00:21:23;;;;;;;0.00;0.00;;;8.70;99.90;;;;;;5097112;28;20088;-74
2023/04/26 00:23:49;;;;;;;0.00;0.00;;;8.70;99.90;;;;;;5090918;28;20027;-75
2023/04/26 00:26:15;;;;;;;0.00;0.00;;;8.60;99.90;;;;;;5098646;28;20553;-73
2023/04/26 00:28:41;;;;;;;0.00;0.00;;;8.70;99.90;;;;;;5097274;28;20074;-73
2023/04/26 00:31:06;;;;;;;0.00;0.00;;;8.30;99.90;;;;;;5101403;28;20028;-72
2023/04/26 00:33:32;;;;;;;0.22;0.22;;;8.30;99.90;;;;;;5103651;28;20022;-73
2023/04/26 00:35:58;;;;;;;0.10;0.10;;;8.30;99.90;;;;;;5098246;28;20034;-74
2023/04/26 00:38:23;;;;;;;0.00;0.00;;;8.40;99.90;;;;;;5097279;28;20024;-70
2023/04/26 00:40:49;;;;;;;0.00;0.00;;;8.40;99.90;;;;;;5095671;28;20016;-71
2023/04/26 00:43:15;;;;;;;0.10;0.10;;;8.50;99.90;;;;;;5091167;28;20584;-73
2023/04/26 00:45:41;;;;;;;0.10;0.10;;;8.50;99.90;;;;;;5080660;28;20036;-73
2023/04/26 00:48:07;;;;;;;0.10;0.10;;;8.50;99.90;;;;;;5080021;28;20032;-73
2023/04/26 00:50:33;;;;;;;0.10;0.10;;;8.30;99.90;;;;;;5080245;28;20051;-73
2023/04/26 00:53:00;;;;;;;0.10;0.10;;;8.30;99.90;;;;;;5080657;28;20053;-72
2023/04/26 00:55:26;;;;;;;0.00;0.00;;;8.30;99.90;;;;;;5081061;28;20024;-72
2023/04/26 00:57:54;;;;;;;0.10;0.10;;;8.30;99.90;;;;;;5081910;28;20866;-72
2023/04/26 01:00:20;;;;;;;0.10;0.10;;;8.20;99.90;;;;;;5080702;28;20016;-73
2023/04/26 01:02:46;;;;;;;0.00;0.00;;;8.20;99.90;;;;;;5081351;28;20016;-71
2023/04/26 01:05:12;;;;;;;0.00;0.00;;;8.20;99.90;;;;;;5081123;28;20023;-72
2023/04/26 01:07:38;;;;;;;0.10;0.10;;;8.20;99.90;;;;;;5080570;28;20054;-73
2023/04/26 01:10:05;;;;;;;0.10;0.10;;;8.20;99.90;;;;;;5078767;28;20036;-74
2023/04/26 01:12:31;;;;;;;0.03;0.03;;;8.20;99.90;;;;;;5079743;28;20300;-72
2023/04/26 01:14:59;;;;;;;0.10;0.10;;;8.20;99.90;;;;;;5079281;28;20055;-72
2023/04/26 01:17:25;;;;;;;0.00;0.00;;;8.20;99.90;;;;;;5079019;28;20077;-75
2023/04/26 01:19:51;;;;;;;0.10;0.10;;;8.20;99.90;;;;;;5080211;28;20028;-72
2023/04/26 01:22:17;;;;;;;0.00;0.00;;;8.20;99.90;;;;;;5078911;28;20115;-72
2023/04/26 01:24:47;;;;;;;0.10;0.10;;;8.20;99.90;;;;;;5079819;28;20016;-73
2023/04/26 01:27:13;;;;;;;0.00;0.00;;;8.20;99.90;;;;;;5079354;28;20559;-72
2023/04/26 01:29:38;;;;;;;0.10;0.10;;;8.20;99.90;;;;;;5086082;28;20028;-74
2023/04/26 01:32:04;;;;;;;0.00;0.00;;;8.20;99.90;;;;;;5087434;28;20060;-73
2023/04/26 01:34:32;;;;;;;0.85;0.85;;;8.20;99.90;;;;;;5087499;28;20028;-73
2023/04/26 01:36:57;;;;;;;0.38;0.38;;;8.20;99.90;;;;;;5087471;28;20020;-72
2023/04/26 01:39:23;;;;;;;0.05;0.05;;;8.20;99.90;;;;;;5089698;28;20019;-73
2023/04/26 01:41:49;;;;;;;0.10;0.10;;;8.20;99.90;;;;;;5089112;28;20031;-73
2023/04/26 01:44:15;;;;;;;0.10;0.10;;;8.20;99.90;;;;;;5095233;28;20023;-76
2023/04/26 01:46:40;;;;;;;0.10;0.10;;;8.20;99.90;;;;;;5094364;28;20077;-72
2023/04/26 01:49:06;;;;;;;0.10;0.10;;;8.10;99.90;;;;;;5092636;28;20861;-72
2023/04/26 01:51:33;;;;;;;0.00;0.00;;;8.10;99.90;;;;;;5092406;28;20496;-73
2023/04/26 01:53:59;;;;;;;0.05;0.05;;;8.00;99.90;;;;;;5090747;28;20328;-73
2023/04/26 01:56:24;;;;;;;0.00;0.00;;;8.00;99.90;;;;;;5094111;28;20692;-73
2023/04/26 01:58:50;;;;;;;0.00;0.00;;;8.00;99.90;;;;;;5087243;28;20714;-73
2023/04/26 02:01:16;;;;;;;0.00;0.00;;;8.00;99.90;;;;;;5082648;28;20020;-73
2023/04/26 02:03:42;;;;;;;0.10;0.10;;;8.10;99.90;;;;;;5083505;28;20020;-72
2023/04/26 02:06:08;;;;;;;0.05;0.05;;;8.10;99.90;;;;;;5082651;28;20024;-73
2023/04/26 02:08:33;;;;;;;0.00;0.00;;;7.90;99.90;;;;;;5087550;28;20069;-72
2023/04/26 02:10:59;;;;;;;0.00;0.00;;;7.80;99.90;;;;;;5084618;28;20083;-73
2023/04/26 02:13:25;;;;;;;0.05;0.05;;;7.70;99.90;;;;;;5083210;28;20104;-72
2023/04/26 02:15:51;;;;;;;0.10;0.10;;;7.60;99.90;;;;;;5082727;28;20024;-73
2023/04/26 02:18:20;;;;;;;0.00;0.00;;;7.60;99.90;;;;;;5085830;28;20707;-73
2023/04/26 02:20:46;;;;;;;0.10;0.10;;;7.70;99.90;;;;;;5091505;28;20028;-74
2023/04/26 02:23:12;;;;;;;0.00;0.00;;;7.70;99.90;;;;;;5099537;28;20027;-74
2023/04/26 02:25:38;;;;;;;0.00;0.00;;;7.60;99.90;;;;;;5101586;28;20058;-74
2023/04/26 02:28:05;;;;;;;0.08;0.08;;;7.70;99.90;;;;;;5096180;28;20044;-73
2023/04/26 02:30:31;;;;;;;0.00;0.00;;;7.70;99.90;;;;;;5090733;28;20040;-71
2023/04/26 02:32:57;;;;;;;0.10;0.10;;;7.70;99.90;;;;;;5089931;28;20726;-75
2023/04/26 02:35:23;;;;;;;0.00;0.00;;;7.60;99.90;;;;;;5091077;28;20055;-73
2023/04/26 02:37:51;;;;;;;0.00;0.00;;;7.60;99.90;;;;;;5090402;28;20027;-73
2023/04/26 02:40:17;;;;;;;0.10;0.10;;;7.70;99.90;;;;;;5090950;28;20016;-74
2023/04/26 02:42:43;;;;;;;0.00;0.00;;;7.70;99.90;;;;;;5090483;28;20678;-72
2023/04/26 02:45:09;;;;;;;0.10;0.10;;;7.70;99.90;;;;;;5088375;28;20024;-73
2023/04/26 02:47:35;;;;;;;0.00;0.00;;;7.60;99.90;;;;;;5088850;28;20021;-74
2023/04/26 02:50:06;;;;;;;0.10;0.10;;;7.70;99.90;;;;;;5090434;28;20115;-72
2023/04/26 02:52:32;;;;;;;0.10;0.10;;;7.70;99.90;;;;;;5087720;28;20024;-73
2023/04/26 02:54:58;;;;;;;0.08;0.08;;;7.70;99.90;;;;;;5087983;28;20028;-73
2023/04/26 02:57:24;;;;;;;0.00;0.00;;;7.70;99.90;;;;;;5088192;28;20693;-74
2023/04/26 02:59:50;;;;;;;0.10;0.10;;;7.70;99.90;;;;;;5090735;28;20031;-77
2023/04/26 03:02:16;;;;;;;0.00;0.00;;;7.70;99.90;;;;;;5091732;28;20629;-73
2023/04/26 03:04:42;;;;;;;0.00;0.00;;;7.60;99.90;;;;;;5091689;28;20020;-73
2023/04/26 03:07:07;;;;;;;0.00;0.00;;;7.50;99.90;;;;;;5089541;28;20028;-72
2023/04/26 03:09:33;;;;;;;0.10;0.10;;;7.50;99.90;;;;;;5090259;28;20050;-71
2023/04/26 03:11:59;;;;;;;0.10;0.10;;;7.60;99.90;;;;;;5090331;28;20569;-74
2023/04/26 03:14:26;;;;;;;0.00;0.00;;;7.50;99.90;;;;;;5093702;28;20028;-72
2023/04/26 03:16:52;;;;;;;0.00;0.00;;;7.50;99.90;;;;;;5092888;28;20454;-73
2023/04/26 03:19:18;;;;;;;0.00;0.00;;;7.60;99.90;;;;;;5095483;28;20119;-72
2023/04/26 03:21:43;;;;;;;0.10;0.10;;;7.50;99.90;;;;;;5096850;28;20112;-72
2023/04/26 03:24:10;;;;;;;0.10;0.10;;;7.50;99.90;;;;;;5090372;28;20023;-73
2023/04/26 03:26:36;;;;;;;0.08;0.08;;;7.50;99.90;;;;;;5086770;28;20028;-72
2023/04/26 03:29:02;;;;;;;0.45;0.43;;;7.50;99.90;;;;;;5085608;28;20575;-73
2023/04/26 03:31:28;;;;;;;0.00;0.00;;;7.40;99.90;;;;;;5090338;28;20028;-72
2023/04/26 03:33:53;;;;;;;0.00;0.00;;;7.30;99.90;;;;;;5091349;28;20026;-72
2023/04/26 03:36:19;;;;;;;0.00;0.00;;;7.30;99.90;;;;;;5093408;28;20020;-73
2023/04/26 03:38:45;;;;;;;0.00;0.00;;;7.40;99.90;;;;;;5095275;28;20035;-72
2023/04/26 03:41:11;;;;;;;0.08;0.08;;;7.30;99.90;;;;;;5098369;28;20024;-73
2023/04/26 03:43:37;;;;;;;0.00;0.00;;;7.30;99.90;;;;;;5086836;28;20028;-72
2023/04/26 03:46:03;;;;;;;0.00;0.00;;;7.20;99.90;;;;;;5080464;28;20643;-72
2023/04/26 03:48:29;;;;;;;0.00;0.00;;;7.30;99.90;;;;;;5080646;28;20610;-71
2023/04/26 03:50:55;;;;;;;0.00;0.00;;;7.30;99.90;;;;;;5082727;28;20123;-72
2023/04/26 03:53:21;;;;;;;0.00;0.00;;;7.30;99.90;;;;;;5081459;28;20033;-72
2023/04/26 03:55:47;;;;;;;0.10;0.10;;;7.30;99.90;;;;;;5081123;28;20108;-71
2023/04/26 03:58:12;;;;;;;0.05;0.05;;;6.10;99.90;;;;;;5081308;28;20091;-72
2023/04/26 04:00:41;;;;;;;0.00;0.00;;;7.30;99.90;;;;;;5079713;28;20028;-71
2023/04/26 04:03:07;;;;;;;0.00;0.00;;;7.30;99.90;;;;;;5080532;28;20200;-73
2023/04/26 04:05:33;;;;;;;0.00;0.00;;;7.30;99.90;;;;;;5080985;28;20857;-72
2023/04/26 04:07:58;;;;;;;0.00;0.00;;;7.20;99.90;;;;;;5081328;28;20016;-72
2023/04/26 04:10:24;;;;;;;0.10;0.10;;;7.20;99.90;;;;;;5080627;28;20682;-72
2023/04/26 04:12:51;;;;;;;0.00;0.00;;;7.30;99.90;;;;;;5081054;28;20646;-72
2023/04/26 04:15:18;;;;;;;0.10;0.10;;;7.30;99.90;;;;;;5080629;28;20028;-74
2023/04/26 04:17:43;;;;;;;0.00;0.00;;;7.40;99.90;;;;;;5079324;28;20101;-72
2023/04/26 04:20:10;;;;;;;0.03;0.03;;;7.40;99.90;;;;;;5080047;28;20665;-72
2023/04/26 04:22:38;;;;;;;0.10;0.10;;;7.40;99.90;;;;;;5080588;28;20022;-72
2023/04/26 04:25:05;;;;;;;0.10;0.10;;;7.40;99.90;;;;;;5079933;28;20016;-72
2023/04/26 04:27:31;;;;;;;0.10;0.10;;;7.40;99.90;;;;;;5079502;28;20044;-72
2023/04/26 04:29:57;;;;;;;0.00;0.00;;;7.40;99.90;;;;;;5080344;28;20102;-73
2023/04/26 04:32:23;;;;;;;0.10;0.10;;;7.50;99.90;;;;;;5085411;28;20016;-72
2023/04/26 04:34:53;;;;;;;0.00;0.00;;;7.50;99.90;;;;;;5082880;28;20020;-73
2023/04/26 04:37:20;;;;;;;0.10;0.10;;;7.50;99.90;;;;;;5084207;28;20019;-72
2023/04/26 04:39:45;;;;;;;0.10;0.10;;;7.60;99.90;;;;;;5083213;28;20024;-73
2023/04/26 04:42:11;;;;;;;0.10;0.10;;;7.60;99.90;;;;;;5089328;28;20024;-74
2023/04/26 04:44:38;;;;;;;0.00;0.00;;;7.70;99.90;;;;;;5086861;28;20547;-72
2023/04/26 04:47:04;;;;;;;0.00;0.00;;;7.70;99.90;;;;;;5083760;28;20035;-73
2023/04/26 04:49:30;;;;;;;0.00;0.00;;;7.70;99.90;;;;;;5087057;28;20067;-72
2023/04/26 04:51:56;;;;;;;0.00;0.00;;;7.70;99.90;;;;;;5088706;28;20081;-72
2023/04/26 04:54:22;;;;;;;0.10;0.10;;;7.70;99.90;;;;;;5083914;28;20048;-74
2023/04/26 04:56:48;;;;;;;0.10;0.10;;;7.70;99.90;;;;;;5081477;28;20047;-72
2023/04/26 04:59:13;;;;;;;0.10;0.10;;;7.80;99.90;;;;;;5081299;28;20672;-74
2023/04/26 05:01:40;;;;;;;0.00;0.00;;;;;;;;;;5084022;28;20048;-73
2023/04/26 05:04:06;;;;;;;0.10;0.10;;;7.80;99.90;;;;;;5078665;28;20035;-77
2023/04/26 05:06:31;;;;;;;0.10;0.10;;;7.80;99.90;;;;;;5080323;28;20852;-73
2023/04/26 05:08:57;;;;;;;0.10;0.10;;;6.90;99.90;;;;;;5079791;28;20127;-71
2023/04/26 05:11:23;;;;;;;0.10;0.10;;;7.80;99.90;;;;;;5081714;28;20051;-73
2023/04/26 05:13:50;;;;;;;0.00;0.00;;;7.80;99.90;;;;;;5083969;28;20035;-72
2023/04/26 05:16:16;;;;;;;0.10;0.10;;;7.90;99.90;;;;;;5087095;28;20020;-72
2023/04/26 05:18:41;;;;;;;0.10;0.10;;;8.00;99.90;;;;;;5085965;28;20112;-72
2023/04/26 05:21:08;;;;;;;0.10;0.10;;;8.00;99.90;;;;;;5087369;28;20055;-72
2023/04/26 05:23:33;;;;;;;0.10;0.10;;;8.00;99.90;;;;;;5087853;28;20050;-72
2023/04/26 05:26:06;;;;;;;0.15;0.15;;;8.00;99.90;;;;;;5086679;28;20762;-75
2023/04/26 05:28:33;;;;;;;0.10;0.10;;;8.10;99.90;;;;;;5085471;28;20095;-74
2023/04/26 05:31:03;;;;;;;0.10;0.10;;;8.10;99.90;;;;;;5087580;28;20096;-72
2023/04/26 05:33:28;;;;;;;0.05;0.05;;;8.10;99.90;;;;;;5093543;28;20103;-72
2023/04/26 05:35:56;;;;;;;0.00;0.00;;;8.10;99.90;;;;;;5086567;28;20109;-73
2023/04/26 05:38:22;;;;;;;0.10;0.10;;;8.20;99.90;;;;;;5087173;28;20091;-73
2023/04/26 05:40:48;;;;;;;0.43;0.43;;;8.10;99.90;;;;;;5089907;28;20071;-75
2023/04/26 05:43:14;;;;;;;0.10;0.10;;;8.00;99.90;;;;;;5096190;28;20034;-74
2023/04/26 05:45:48;;;;;;;0.10;0.10;;;8.00;99.90;;;;;;5094720;28;20008;-73
2023/04/26 05:48:15;;;;;;;0.10;0.10;;;7.90;99.90;;;;;;5097021;28;20040;-73
2023/04/26 05:50:40;;;;;;;0.00;0.00;;;7.90;99.90;;;;;;5100738;28;20044;-73
2023/04/26 05:53:06;;;;;;;0.05;0.05;;;7.90;99.90;;;;;;5090319;28;20106;-72
2023/04/26 05:55:32;;;;;;;0.10;0.10;;;7.90;99.90;;;;;;5094633;28;20095;-73
2023/04/26 05:57:58;;;;;;;0.00;0.00;;;7.90;99.90;;;;;;5091578;28;20117;-73
2023/04/26 06:00:24;;;;;;;0.05;0.05;;;8.00;99.90;;;;;;5094132;28;20532;-73
2023/04/26 06:02:50;;;;;;;0.10;0.10;;;8.10;99.90;;;;;;5090959;28;20031;-73
2023/04/26 06:05:16;;;;;;;0.08;0.08;;;8.20;99.90;;;;;;5092257;28;20044;-73
2023/04/26 06:07:43;;;;;;;0.10;0.10;;;8.20;99.90;;;;;;5088180;28;20074;-74
2023/04/26 06:10:09;;;;;;;0.00;0.00;;;8.20;99.90;;;;;;5087477;28;20036;-73
2023/04/26 06:12:35;;;;;;;0.00;0.00;;;8.10;99.90;;;;;;5084457;28;20020;-72
2023/04/26 06:15:01;;;;;;;0.03;0.03;;;8.10;99.90;;;;;;5080491;28;20035;-73
2023/04/26 06:17:26;;;;;;;0.10;0.10;;;8.10;99.90;;;;;;5078562;28;20099;-73
2023/04/26 06:19:52;;;;;;;0.10;0.10;;;8.10;99.90;;;;;;5079208;28;20062;-73
2023/04/26 06:22:18;;;;;;;0.10;0.10;;;8.00;99.90;;;;;;5078393;28;20020;-73
2023/04/26 06:24:44;;;;;;;0.43;0.43;;;8.00;99.90;;;;;;5078464;28;20112;-73
2023/04/26 06:27:09;;;;;;;0.10;0.10;;;8.00;99.90;;;;;;5080039;28;20024;-73
2023/04/26 06:29:35;;;;;;;0.10;0.10;;;7.90;99.90;;;;;;5079773;28;20263;-73
2023/04/26 06:32:01;;;;;;;0.10;0.10;;;8.00;99.90;;;;;;5088409;28;20104;-73
2023/04/26 06:34:27;;;;;;;0.10;0.10;;;8.00;99.90;;;;;;5086159;28;20017;-73
2023/04/26 06:36:53;;;;;;;0.10;0.10;;;8.10;99.90;;;;;;5093401;28;20061;-72
2023/04/26 06:39:18;;;;;;;0.05;0.05;;;8.10;99.90;;;;;;5088651;28;20103;-73
2023/04/26 06:41:44;;;;;;;0.10;0.10;;;8.20;99.90;;;;;;5088719;28;20043;-74
2023/04/26 06:44:10;;;;;;;0.10;0.10;;;8.30;99.90;;;;;;5087234;28;20070;-74
2023/04/26 06:46:36;;;;;;;0.00;0.00;;;8.20;99.90;;;;;;5098727;28;20020;-75
2023/04/26 06:49:02;;;;;;;0.00;0.00;;;8.20;99.90;;;;;;5100180;28;20060;-74
2023/04/26 06:51:28;;;;;;;0.00;0.00;;;8.30;99.90;;;;;;5098293;28;20039;-75
2023/04/26 06:53:57;;;;;;;0.10;0.10;;;8.30;99.90;;;;;;5101328;28;20697;-73
2023/04/26 06:56:23;;;;;;;0.10;0.10;;;8.30;99.90;;;;;;5087989;28;20093;-73
2023/04/26 06:59:00;;;;;;;0.10;0.10;;;8.40;99.90;;;;;;5091872;28;20644;-73
2023/04/26 07:01:28;;;;;;;0.10;0.10;;;8.30;99.90;;;;;;5097460;28;20039;-76
2023/04/26 07:03:55;;;;;;;0.00;0.00;;;8.30;99.90;;;;;;5098826;28;20027;-75
2023/04/26 07:06:21;;;;;;;0.05;0.05;;;8.30;99.90;;;;;;5098007;28;20016;-72
2023/04/26 07:08:47;;;;;;;0.00;0.00;;;8.30;99.90;;;;;;5099919;28;20020;-73
2023/04/26 07:11:13;;;;;;;0.00;0.00;;;;;;;;;;5104435;28;20058;-75
2023/04/26 07:13:39;;;;;;;0.00;0.00;;;8.20;99.90;;;;;;5105095;28;20024;-75
2023/04/26 07:16:05;;;;;;;0.00;0.00;;;8.20;99.90;;;;;;5105278;28;20049;-76
2023/04/26 07:18:31;;;;;;;0.10;0.10;;;8.20;99.90;;;;;;5101190;28;20043;-76
2023/04/26 07:20:56;;;;;;;0.10;0.10;;;8.20;99.90;;;;;;5094051;28;20028;-79
2023/04/26 07:23:22;;;;;;;0.10;0.10;;;8.30;99.90;;;;;;5099438;28;20031;-73
2023/04/26 07:25:48;;;;;;;0.10;0.10;;;8.30;99.90;;;;;;5092295;28;20089;-71
2023/04/26 07:28:14;;;;;;;0.15;0.15;;;8.30;99.90;;;;;;5102652;28;20024;-75
2023/04/26 07:30:40;;;;;;;0.10;0.10;;;8.40;99.90;;;;;;5099752;28;20193;-78
2023/04/26 07:33:06;;;;;;;0.10;0.10;;;8.30;99.90;;;;;;5094293;28;20670;-74
2023/04/26 07:35:34;;;;;;;0.00;0.00;;;8.30;99.90;;;;;;5094554;28;20028;-74
2023/04/26 07:38:00;;;;;;;0.20;0.20;;;8.30;99.90;;;;;;5091743;28;20550;-81
2023/04/26 07:40:28;;;;;;;0.10;0.10;;;8.20;99.90;;;;;;5086298;28;20046;-75
2023/04/26 07:42:53;;;;;;;0.10;0.10;;;8.30;99.90;;;;;;5093421;28;20053;-75
2023/04/26 07:45:19;;;;;;;0.00;0.00;;;8.20;99.90;;;;;;5093752;28;20016;-75
2023/04/26 07:47:45;;;;;;;0.08;0.08;;;8.20;99.90;;;;;;5091397;28;20104;-72
2023/04/26 07:50:11;;;;;;;0.03;0.03;;;8.20;99.90;;;;;;5094099;28;20044;-74
2023/04/26 07:52:37;;;;;;;0.03;0.03;;;8.30;99.90;;;;;;5096898;28;20074;-72
2023/04/26 07:55:04;;;;;;;0.10;0.10;;;8.40;99.90;;;;;;5096397;28;20653;-76
2023/04/26 07:57:29;;;;;;;0.10;0.10;;;8.50;99.90;;;;;;5097600;28;20024;-73
2023/04/26 07:59:55;;;;;;;0.10;0.10;;;8.60;99.90;;;;;;5097626;28;20027;-73
2023/04/26 08:02:21;;;;;;;0.10;0.10;;;8.60;99.90;;;;;;5095992;28;20096;-75
2023/04/26 08:04:51;;;;;;;0.10;0.10;;;8.70;99.90;;;;;;5094756;28;20035;-72
2023/04/26 08:07:18;;;;;;;0.10;0.10;;;8.70;99.90;;;;;;5092470;28;20028;-72
2023/04/26 08:09:44;;;;;;;0.10;0.10;;;8.60;99.90;;;;;;5095541;28;20696;-73
2023/04/26 08:12:12;;;;;;;0.10;0.10;;;8.50;99.90;;;;;;5090196;28;20021;-70
2023/04/26 08:14:38;;;;;;;0.10;0.10;;;9.60;99.90;;;;;;5096096;28;20024;-73
2023/04/26 08:17:05;;;;;;;0.10;0.10;;;10.50;99.90;;;;;;5095496;28;20039;-75
2023/04/26 08:19:32;;;;;;;0.10;0.10;;;9.70;99.90;;;;;;5089205;28;20539;-73
2023/04/26 08:21:58;;;;;;;0.10;0.10;;;9.70;99.90;;;;;;5099352;28;20088;-71
2023/04/26 08:24:23;;;;;;;0.10;0.10;;;9.50;99.90;;;;;;5098521;28;20036;-74
2023/04/26 08:26:49;;;;;;;0.20;0.20;;;9.20;99.90;;;;;;5097349;28;20025;-74
2023/04/26 08:29:15;;;;;;;0.03;0.03;;;9.00;99.90;;;;;;5088847;28;20019;-74
2023/04/26 08:31:41;;;;;;;0.10;0.10;;;8.90;99.90;;;;;;5093516;28;20099;-74
2023/04/26 08:34:10;;;;;;;0.00;0.00;;;8.80;99.90;;;;;;5095916;28;20055;-73
2023/04/26 08:36:40;;;;;;;0.00;0.00;;;8.70;99.90;;;;;;5090505;28;20055;-74
2023/04/26 08:39:06;;;;;;;0.10;0.10;;;8.60;99.90;;;;;;5099099;28;20099;-76
2023/04/26 08:41:36;;;;;;;0.10;0.10;;;8.00;99.90;;;;;;5097057;28;20043;-76
2023/04/26 08:44:05;;;;;;;0.08;0.08;;;8.40;99.90;;;;;;5097229;28;20020;-77
2023/04/26 08:46:43;;;;;;;0.08;0.08;;;8.40;99.90;;;;;;5096199;28;20016;-73
2023/04/26 08:49:26;;;;;;;0.20;0.20;;;8.40;99.90;;;;;;5094850;28;20066;-74
2023/04/26 08:52:02;;;;;;;0.10;0.10;;;8.40;99.90;;;;;;5088789;28;20036;-74
2023/04/26 08:54:28;;;;;;;0.00;0.00;;;8.60;99.90;;;;;;5083216;28;20048;-72
2023/04/26 08:56:57;;;;;;;0.00;0.00;;;8.60;99.90;;;;;;5090494;28;20597;-73
2023/04/26 08:59:23;;;;;;;0.10;0.10;;;8.70;99.90;;;;;;5100814;28;20024;-73
2023/04/26 09:01:49;;;;;;;0.10;0.10;;;8.80;99.90;;;;;;5100032;28;20050;-77
2023/04/26 09:04:16;;;;;;;0.00;0.00;;;8.90;99.90;;;;;;5096892;28;20031;-74
2023/04/26 09:06:43;;;;;;;0.85;0.85;;;9.10;99.90;;;;;;5084537;28;20513;-74
2023/04/26 09:09:12;;;;;;;0.10;0.10;;;9.30;99.90;;;;;;5093538;28;20039;-73
2023/04/26 09:11:55;;;;;;;0.10;0.10;;;9.50;99.90;;;;;;5093460;28;20028;-73
2023/04/26 09:14:21;;;;;;;0.10;0.10;;;9.80;99.90;;;;;;5096822;28;20020;-73
2023/04/26 09:16:47;;;;;;;0.15;0.15;;;9.90;99.90;;;;;;5096958;28;20048;-72
2023/04/26 09:19:14;;;;;;;0.10;0.10;;;10.00;99.90;;;;;;5096547;28;20031;-75
2023/04/26 09:21:46;;;;;;;0.20;0.20;;;10.10;99.90;;;;;;5092915;28;20104;-74
2023/04/26 09:24:14;;;;;;;3.10;2.95;;;10.20;99.90;;;;;;5093387;28;20557;-75
2023/04/26 09:26:40;;;;;;;0.10;0.10;;;10.20;99.90;;;;;;5091020;28;20070;-73
2023/04/26 09:29:17;;;;;;;0.10;0.10;;;10.40;99.90;;;;;;5098492;28;20031;-75
2023/04/26 09:31:46;;;;;;;0.10;0.10;;;10.60;99.90;;;;;;5093857;28;20020;-80
2023/04/26 09:34:13;;;;;;;5.07;4.85;;;10.60;99.90;;;;;;5095424;28;20097;-73
2023/04/26 09:36:58;;;;;;;0.10;0.10;;;10.80;99.90;;;;;;5089103;28;20030;-74
2023/04/26 09:39:32;;;;;;;0.20;0.20;;;10.90;99.90;;;;;;5090028;28;20051;-73
2023/04/26 09:41:58;;;;;;;0.10;0.10;;;10.90;99.90;;;;;;5091409;28;20077;-73
2023/04/26 09:44:25;;;;;;;0.20;0.20;;;10.70;99.90;;;;;;5098476;28;20032;-73
2023/04/26 09:47:04;;;;;;;0.10;0.10;;;10.70;99.90;;;;;;5099515;28;20027;-73
2023/04/26 09:49:51;;;;;;;0.20;0.20;;;10.60;99.90;;;;;;5099431;28;20095;-72
2023/04/26 09:52:18;;;;;;;0.20;0.20;;;10.60;99.90;;;;;;5097384;28;20155;-73
2023/04/26 09:54:50;;;;;;;0.10;0.10;;;10.80;99.90;;;;;;5084420;28;20200;-73
2023/04/26 09:57:18;;;;;;;0.73;0.73;;;11.00;99.90;;;;;;5091091;28;20088;-74
2023/04/26 09:59:48;;;;;;;0.20;0.20;;;11.10;99.90;;;;;;5084973;28;20620;-71
2023/04/26 10:02:23;;;;;;;0.20;0.20;;;11.20;99.90;;;;;;5080370;28;20108;-86
2023/04/26 10:04:50;;;;;;;2.40;2.33;;;11.40;99.90;;;;;;5080171;28;20064;-76
2023/04/26 10:07:19;;;;;;;0.10;0.10;;;11.70;99.90;;;;;;5077083;28;20600;-72
2023/04/26 10:09:46;;;;;;;0.15;0.15;;;11.90;99.90;;;;;;5080756;28;20028;-72
2023/04/26 10:12:13;;;;;;;0.20;0.20;;;11.80;99.90;;;;;;5079960;28;20107;-72
2023/04/26 10:14:40;;;;;;;0.20;0.20;;;12.00;99.90;;;;;;5077678;28;20077;-72
2023/04/26 10:17:06;;;;;;;0.20;0.20;;;11.80;99.90;;;;;;5077607;28;20308;-71
2023/04/26 10:19:34;;;;;;;0.10;0.10;;;12.00;99.90;;;;;;5078906;28;20085;-85
2023/04/26 10:22:08;;;;;;;0.10;0.10;;;12.30;99.90;;;;;;5077170;28;20020;-80
2023/04/26 10:24:35;;;;;;;0.10;0.10;;;12.40;99.90;;;;;;5079102;28;20025;-78
2023/04/26 10:27:03;;;;;;;0.13;0.13;;;12.30;99.90;;;;;;5078921;28;20032;-87
2023/04/26 10:29:54;;;;;;;0.20;0.20;;;12.50;99.90;;;;;;5078323;28;20578;-75
2023/04/26 10:32:21;;;;;;;0.20;0.20;;;12.70;97.90;;;;;;5023047;28;20095;-76
2023/04/26 10:35:20;;;;;;;0.20;0.20;;;12.40;99.40;;;;;;5016591;28;20029;-86
2023/04/26 10:38:01;;;;;;;0.10;0.10;;;12.60;98.70;;;;;;4919242;29;20036;-83
2023/04/26 10:40:28;;;;;;;0.20;0.20;;;12.50;99.90;;;;;;4919152;29;20038;-85
2023/04/26 10:43:32;;;;;;;0.10;0.10;;;12.70;99.90;;;;;;4921248;29;20036;-86
2023/04/26 10:46:36;;;;;;;0.10;0.10;;;12.80;99.90;;;;;;4868338;29;20036;-77
2023/04/26 10:49:13;;;;;;;0.20;0.20;;;12.90;99.40;;;;;;4883532;29;20141;-81
2023/04/26 10:51:39;;;;;;;4.63;4.43;;;12.90;99.70;;;;;;4884092;29;20124;-74
2023/04/26 10:54:06;;;;;;;0.10;0.10;;;12.60;98.80;;;;;;4883551;29;20267;-74
2023/04/26 10:56:32;;;;;;;0.20;0.20;;;12.40;99.90;;;;;;4882803;29;20528;-73
2023/04/26 10:59:12;;;;;;;1.30;1.23;;;12.60;99.90;;;;;;4883087;29;20048;-75
2023/04/26 11:01:41;;;;;;;0.15;0.15;;;12.70;99.90;;;;;;4882961;29;20123;-73
2023/04/26 11:04:09;;;;;;;0.15;0.15;;;13.20;99.90;;;;;;4882473;29;20039;-73
2023/04/26 11:06:48;;;;;;;0.10;0.10;;;13.60;99.90;;;;;;4882866;29;20067;-75
2023/04/26 11:09:35;;;;;;;2.15;2.05;;;13.90;98.70;;;;;;4898499;29;20035;-73
2023/04/26 11:12:04;;;;;;;0.10;0.10;;;14.20;96.20;;;;;;4920439;29;20087;-75
2023/04/26 11:14:30;;;;;;;0.10;0.10;;;14.40;94.80;;;;;;4996030;28;20122;-82
2023/04/26 11:16:56;;;;;;;0.10;0.10;;;14.40;93.70;;;;;;5017554;28;20049;-84
2023/04/26 11:19:22;;;;;;;0.10;0.10;;;14.30;92.30;;;;;;5017239;28;20021;-73
2023/04/26 11:21:48;;;;;;;0.20;0.20;;;13.90;93.20;;;;;;5017199;28;20155;-73
2023/04/26 11:24:23;;;;;;;0.15;0.15;;;13.80;96.00;;;;;;5077981;28;20126;-73
2023/04/26 11:26:52;;;;;;;0.10;0.10;;;13.70;94.60;;;;;;5079993;28;20619;-73
2023/04/26 11:29:19;;;;;;;0.10;0.10;;;13.70;93.40;;;;;;5080367;28;20493;-74
2023/04/26 11:31:57;;;;;;;0.20;0.20;;;13.90;97.40;;;;;;5080192;28;20409;-76
2023/04/26 11:34:40;;;;;;;0.10;0.10;;;13.90;96.40;;;;;;5080610;28;20013;-71
2023/04/26 11:37:06;;;;;;;0.10;0.10;;;14.10;96.90;;;;;;5080583;28;20013;-72
2023/04/26 11:39:35;;;;;;;2.72;2.53;;;14.20;93.30;;;;;;5080664;28;20024;-71
2023/04/26 11:42:08;;;;;;;0.10;0.10;;;14.10;93.80;;;;;;5080015;28;20020;-71
2023/04/26 11:44:34;;;;;;;0.10;0.10;;;14.10;94.40;;;;;;5079690;28;20028;-71
2023/04/26 11:47:05;;;;;;;0.10;0.10;;;14.30;96.40;;;;;;5079808;28;20023;-72
2023/04/26 11:49:32;;;;;;;0.30;0.30;;;14.20;95.90;;;;;;5079767;28;20085;-72
2023/04/26 11:51:58;;;;;;;0.10;0.10;;;14.20;97.50;;;;;;5080555;28;20039;-71
2023/04/26 11:54:32;;;;;;;0.22;0.22;;;14.30;95.50;;;;;;5078793;28;20068;-71
2023/04/26 11:56:58;;;;;;;;;;;14.40;95.10;;;;;;5080119;28;20097;-71
2023/04/26 11:59:28;;;;;;;0.10;0.10;;;14.40;89.20;;;;;;5080425;28;19999;-79
2023/04/26 12:01:57;;;;;;;0.10;0.10;;;14.30;90.30;;;;;;5079775;28;20219;-72
2023/04/26 12:04:29;;;;;;;0.17;0.17;;;14.40;94.70;;;;;;5079789;28;20028;-83
2023/04/26 12:06:56;;;;;;;0.10;0.10;;;14.30;94.40;;;;;;5080122;28;20054;-72
2023/04/26 12:09:23;;;;;;;0.10;0.10;;;15.00;94.40;;;;;;5079408;28;20153;-71
2023/04/26 12:11:59;;;;;;;0.10;0.10;;;15.50;90.70;;;;;;5079491;28;20024;-72
2023/04/26 12:14:38;;;;;;;0.10;0.10;;;15.50;90.60;;;;;;5078249;28;20199;-77
2023/04/26 12:17:06;;;;;;;0.10;0.10;;;15.90;84.50;;;;;;5078993;28;20645;-72
2023/04/26 12:19:39;;;;;;;0.22;0.22;;;16.20;81.80;;;;;;5079425;28;20122;-75
2023/04/26 12:22:05;;;;;;;;;;;15.70;76.80;;;;;;5079819;28;20012;-79
2023/04/26 12:24:36;;;;;;;0.10;0.10;;;14.00;75.90;;;;;;5079130;28;20587;-81
2023/04/26 12:27:04;;;;;;;0.10;0.10;;;15.30;82.10;;;;;;5077789;28;20023;-73
2023/04/26 12:29:30;;;;;;;0.15;0.15;;;14.60;89.20;;;;;;5079125;28;20611;-73
2023/04/26 12:31:57;;;;;;;0.10;0.10;;;14.40;89.50;;;;;;5077713;28;20032;-72
2023/04/26 12:34:24;;;;;;;2.72;2.63;;;14.10;91.00;;;;;;5079087;28;20675;-71
2023/04/26 12:36:49;;;;;;;0.10;0.10;;;14.10;87.20;;;;;;5077712;28;20020;-72
2023/04/26 12:39:15;;;;;;;0.10;0.10;;;14.30;89.60;;;;;;5078980;28;20622;-75
2023/04/26 12:41:42;;;;;;;0.10;0.10;;;14.90;91.30;;;;;;5078904;28;20020;-72
2023/04/26 12:44:09;;;;;;;0.10;0.10;;;15.40;83.40;;;;;;5078820;28;20024;-72
2023/04/26 12:46:35;;;;;;;0.20;0.20;;;15.70;81.10;;;;;;5078563;28;20027;-72
2023/04/26 12:49:01;;;;;;;0.20;0.20;;;15.70;75.70;;;;;;5077407;28;20016;-79
2023/04/26 12:51:27;;;;;;;0.10;0.10;;;15.50;73.60;;;;;;5078472;28;20044;-74
2023/04/26 12:53:53;;;;;;;0.10;0.10;;;15.60;73.80;;;;;;5078677;28;20110;-73
2023/04/26 12:56:18;;;;;;;0.10;0.10;;;16.40;70.10;;;;;;5078545;28;20020;-74
2023/04/26 12:58:44;;;;;;;0.28;0.28;;;17.20;73.90;;;;;;5078640;28;20108;-73